Terminal Aerodrome Forecast
Issued by NWS Grand Forks, ND

Home | Current Version | Previous Version | Text Only | Print | Product List | Glossary On
Versions: 1 2 3 4 5 6 7 8 9 10 11 12 13 14 15
000
FTUS43 KFGF 042300
TAFFAR
TAF
KFAR 042320Z 0500/0524 VRB05KT P6SM SCT250
     FM051200 14008KT P6SM SCT250
     FM051600 15012G20KT P6SM SCT120=

USA.gov is the U.S. government's official web portal to all federal, state and local government web resources and services.